createdAt,value
2018-06-28T00:02:17.669Z,102056.53
2018-06-28T00:07:10.678Z,102052.12
2018-06-28T00:12:03.737Z,102038.39
2018-06-28T00:16:56.832Z,102036.97
2018-06-28T00:21:50.103Z,102034.72
2018-06-28T00:26:43.281Z,102031.92
2018-06-28T00:31:36.336Z,102031.05
2018-06-28T00:36:29.396Z,102030.98
2018-06-28T00:41:22.423Z,102037.21
2018-06-28T00:46:15.640Z,102040.16
2018-06-28T00:51:08.634Z,102028.88
2018-06-28T00:56:01.724Z,102031.83
2018-06-28T01:00:54.715Z,102027.09
2018-06-28T01:05:47.782Z,102025.98
2018-06-28T01:10:40.788Z,102011.14
2018-06-28T01:15:33.831Z,102006.72
2018-06-28T01:20:26.864Z,101998.98
2018-06-28T01:25:19.805Z,102007.11
2018-06-28T01:30:12.861Z,102006.17
2018-06-28T01:35:05.880Z,102007.20
2018-06-28T01:39:58.913Z,101998.11
2018-06-28T01:44:51.966Z,101997.20
2018-06-28T01:49:44.994Z,101996.62
2018-06-28T01:54:37.970Z,101999.55
2018-06-28T01:59:30.952Z,101994.30
2018-06-28T02:04:23.943Z,101991.20
2018-06-28T02:09:16.935Z,101987.34
2018-06-28T02:14:09.949Z,101988.09
2018-06-28T02:19:03.030Z,101980.65
2018-06-28T02:23:56.105Z,101977.05
2018-06-28T02:28:49.091Z,101974.52
2018-06-28T02:33:42.240Z,101968.77
2018-06-28T02:38:35.365Z,101970.33
2018-06-28T02:43:28.321Z,101975.16
2018-06-28T02:48:21.367Z,101962.05
2018-06-28T02:53:14.477Z,101959.78
2018-06-28T02:58:07.435Z,101964.66
2018-06-28T03:03:00.459Z,101954.27
2018-06-28T03:07:53.443Z,101956.91
2018-06-28T03:12:46.470Z,101953.31
2018-06-28T03:17:39.492Z,101954.67
2018-06-28T03:22:32.450Z,101955.75
2018-06-28T03:27:25.479Z,101948.39
2018-06-28T03:32:18.495Z,101955.45
2018-06-28T03:37:11.490Z,101955.40
2018-06-28T03:42:04.564Z,101960.55
2018-06-28T03:46:57.494Z,101953.74
2018-06-28T03:51:50.480Z,101946.06
2018-06-28T03:56:43.567Z,101943.31
2018-06-28T04:01:36.610Z,101947.94
2018-06-28T04:06:29.746Z,101950.92
2018-06-28T04:11:22.688Z,101951.75
2018-06-28T04:16:15.740Z,101958.31
2018-06-28T04:21:08.759Z,101959.39
2018-06-28T04:26:01.779Z,101956.67
2018-06-28T04:30:54.900Z,101952.03
2018-06-28T04:35:48.137Z,101955.84
2018-06-28T04:40:41.205Z,101951.22
2018-06-28T04:45:34.201Z,101946.06
2018-06-28T04:50:27.312Z,101944.74
2018-06-28T04:55:20.340Z,101945.32
2018-06-28T05:00:13.307Z,101943.19
2018-06-28T05:05:06.356Z,101940.27
2018-06-28T05:09:59.381Z,101941.92
2018-06-28T05:14:52.429Z,101947.17
2018-06-28T05:19:45.452Z,101942.60
2018-06-28T05:24:38.524Z,101940.23
2018-06-28T05:29:31.523Z,101940.34
2018-06-28T05:34:24.490Z,101943.16
2018-06-28T05:39:17.466Z,101936.76
2018-06-28T05:44:10.564Z,101933.61
2018-06-28T05:49:03.705Z,101937.00
2018-06-28T05:53:56.738Z,101929.97
2018-06-28T05:58:49.779Z,101933.86
2018-06-28T06:03:42.969Z,101930.95
2018-06-28T06:08:36.081Z,101929.13
2018-06-28T06:13:29.091Z,101920.75
2018-06-28T06:18:22.080Z,101920.85
2018-06-28T06:23:15.102Z,101922.63
2018-06-28T06:28:08.100Z,101915.36
2018-06-28T06:33:01.065Z,101905.59
2018-06-28T06:37:54.065Z,101897.77
2018-06-28T06:42:47.109Z,101898.13
2018-06-28T06:47:40.145Z,101900.67
2018-06-28T06:52:33.143Z,101897.70
2018-06-28T06:57:26.131Z,101893.95
2018-06-28T07:02:19.145Z,101880.11
2018-06-28T07:07:12.185Z,101868.69
2018-06-28T07:12:05.342Z,101869.02
2018-06-28T07:16:58.579Z,101858.41
2018-06-28T07:21:51.934Z,101854.63
2018-06-28T07:26:44.887Z,101851.69
2018-06-28T07:31:37.907Z,101839.61
2018-06-28T07:36:31.032Z,101832.09
2018-06-28T07:41:24.252Z,101835.10
2018-06-28T07:46:17.252Z,101834.16
2018-06-28T07:51:10.280Z,101823.20
2018-06-28T07:56:03.591Z,101824.59
2018-06-28T08:00:56.604Z,101811.94
2018-06-28T08:05:49.665Z,101812.73
2018-06-28T08:10:42.751Z,101812.67
2018-06-28T08:15:35.770Z,101808.23
2018-06-28T08:20:28.793Z,101798.38
2018-06-28T08:25:21.843Z,101801.64
2018-06-28T08:30:14.906Z,101800.02
2018-06-28T08:35:07.889Z,101794.81
2018-06-28T08:40:00.988Z,101784.00
2018-06-28T08:44:54.010Z,101777.75
2018-06-28T08:49:46.988Z,101775.88
2018-06-28T08:54:40.000Z,101767.58
2018-06-28T08:59:32.990Z,101768.19
2018-06-28T09:04:25.967Z,101776.53
2018-06-28T09:09:18.962Z,101764.87
2018-06-28T09:14:11.948Z,101763.86
2018-06-28T09:19:05.040Z,101756.66
2018-06-28T09:23:58.103Z,101749.34
2018-06-28T09:28:51.128Z,101750.31
2018-06-28T09:33:44.323Z,101745.09
2018-06-28T09:38:37.273Z,101740.84
2018-06-28T09:43:30.201Z,101735.31
2018-06-28T09:48:23.328Z,101736.47
2018-06-28T09:53:16.350Z,101721.17
2018-06-28T09:58:09.388Z,101717.75
2018-06-28T10:03:02.369Z,101718.98
2018-06-28T10:07:55.424Z,101710.53
2018-06-28T10:12:48.392Z,101707.48
2018-06-28T10:17:41.595Z,101698.20
2018-06-28T10:22:34.614Z,101699.80
2018-06-28T10:27:27.640Z,101689.52
2018-06-28T10:32:20.693Z,101682.83
2018-06-28T10:37:13.888Z,101682.38
2018-06-28T10:42:07.282Z,101676.56
2018-06-28T10:47:00.393Z,101669.98
2018-06-28T10:51:53.543Z,101668.86
2018-06-28T10:56:46.541Z,101657.17
2018-06-28T11:01:39.559Z,101652.09
2018-06-28T11:06:32.453Z,101650.88
2018-06-28T11:11:25.513Z,101649.08
2018-06-28T11:16:18.491Z,101644.67
2018-06-28T11:21:11.485Z,101636.27
2018-06-28T11:26:04.577Z,101630.27
2018-06-28T11:30:57.703Z,101626.85
2018-06-28T11:35:50.726Z,101627.98
2018-06-28T11:40:43.730Z,101609.58
2018-06-28T11:45:36.848Z,101618.44
2018-06-28T11:50:30.282Z,101613.80
2018-06-28T11:55:23.373Z,101603.70
2018-06-28T12:00:16.374Z,101594.72
2018-06-28T12:05:09.403Z,101592.49
2018-06-28T12:10:02.420Z,101587.08
2018-06-28T12:14:55.461Z,101584.02
2018-06-28T12:19:48.401Z,101585.30
2018-06-28T12:24:41.493Z,101585.17
2018-06-28T12:29:34.499Z,101578.39
2018-06-28T12:34:27.533Z,101568.48
2018-06-28T12:39:20.623Z,101562.08
2018-06-28T12:44:13.696Z,101571.30
2018-06-28T12:49:06.785Z,101549.40
2018-06-28T12:53:59.810Z,101548.87
2018-06-28T12:58:53.925Z,101555.52
2018-06-28T13:03:47.505Z,101548.03
2018-06-28T13:08:40.785Z,101545.30
2018-06-28T13:13:33.972Z,101545.09
2018-06-28T13:18:26.946Z,101538.73
2018-06-28T13:23:19.958Z,101540.78
2018-06-28T13:28:12.951Z,101540.05
2018-06-28T13:33:06.120Z,101521.58
2018-06-28T13:37:59.159Z,101524.55
2018-06-28T13:42:52.195Z,101537.19
2018-06-28T13:47:45.205Z,101518.41
2018-06-28T13:52:38.220Z,101511.09
2018-06-28T13:57:31.216Z,101508.95
2018-06-28T14:02:24.232Z,101496.67
2018-06-28T14:07:17.479Z,101492.92
2018-06-28T14:12:10.653Z,101492.17
2018-06-28T14:17:03.705Z,101471.80
2018-06-28T14:21:56.695Z,101477.64
2018-06-28T14:26:49.596Z,101478.70
2018-06-28T14:31:42.627Z,101480.97
2018-06-28T14:36:35.582Z,101476.96
2018-06-28T14:41:28.706Z,101475.19
2018-06-28T14:46:21.814Z,101474.63
2018-06-28T14:51:14.863Z,101470.73
2018-06-28T14:56:07.857Z,101482.59
2018-06-28T15:01:00.972Z,101480.72
2018-06-28T15:05:54.054Z,101483.09
2018-06-28T15:10:47.171Z,101482.27
2018-06-28T15:15:40.179Z,101477.63
2018-06-28T15:20:33.352Z,101476.96
2018-06-28T15:25:26.321Z,101473.81
2018-06-28T15:30:19.283Z,101464.63
2018-06-28T15:35:12.332Z,101475.27
2018-06-28T15:40:05.499Z,101466.16
2018-06-28T15:44:58.670Z,101459.73
2018-06-28T15:49:51.810Z,101454.63
2018-06-28T15:54:44.867Z,101450.87
2018-06-28T15:59:37.933Z,101455.16
2018-06-28T16:04:31.060Z,101441.01
2018-06-28T16:09:24.210Z,101436.12
2018-06-28T16:14:17.322Z,101422.15
2018-06-28T16:19:10.392Z,101410.92
2018-06-28T16:24:03.505Z,101409.92
2018-06-28T16:28:56.542Z,101412.54
2018-06-28T16:33:49.745Z,101403.57
2018-06-28T16:38:42.789Z,101396.73
2018-06-28T16:43:35.789Z,101398.71
2018-06-28T16:48:31.716Z,101396.55
2018-06-28T16:53:24.765Z,101409.12
2018-06-28T16:58:17.691Z,101408.46
2018-06-28T17:03:13.698Z,101408.53
2018-06-28T17:08:06.778Z,101406.90
2018-06-28T17:12:59.822Z,101407.78
2018-06-28T17:17:52.881Z,101406.81
2018-06-28T17:22:46.044Z,101409.45
2018-06-28T17:27:39.032Z,101406.60
2018-06-28T17:32:32.091Z,101403.59
2018-06-28T17:37:25.317Z,101397.56
2018-06-28T17:42:18.389Z,101397.06
2018-06-28T17:47:11.650Z,101397.25
2018-06-28T17:52:04.718Z,101398.53
2018-06-28T17:56:57.761Z,101402.69
2018-06-28T18:01:50.850Z,101403.34
2018-06-28T18:06:43.826Z,101407.80
2018-06-28T18:11:37.397Z,101408.97
2018-06-28T18:16:30.512Z,101412.22
2018-06-28T18:21:23.475Z,101409.86
2018-06-28T18:26:16.412Z,101414.92
2018-06-28T18:31:09.308Z,101413.08
2018-06-28T18:36:02.341Z,101415.53
2018-06-28T18:40:55.465Z,101412.31
2018-06-28T18:45:48.508Z,101415.02
2018-06-28T18:50:41.686Z,101415.58
2018-06-28T18:55:34.724Z,101417.52
2018-06-28T19:00:27.686Z,101417.83
2018-06-28T19:05:20.687Z,101410.45
2018-06-28T19:10:19.332Z,101412.41
2018-06-28T19:15:17.886Z,101424.88
2018-06-28T19:20:10.994Z,101427.13
2018-06-28T19:25:04.026Z,101429.94
2018-06-28T19:30:02.697Z,101431.20
2018-06-28T19:34:55.802Z,101440.80
2018-06-28T19:41:56.470Z,101433.13
2018-06-28T19:46:49.613Z,101448.41
2018-06-28T19:51:48.293Z,101445.50
2018-06-28T19:56:41.341Z,101442.84
2018-06-28T20:01:40.147Z,101437.46
2018-06-28T20:06:33.148Z,101435.70
2018-06-28T20:11:26.135Z,101433.66
2018-06-28T20:16:25.003Z,101433.89
2018-06-28T20:21:17.975Z,101427.22
2018-06-28T20:26:16.727Z,101429.33
2018-06-28T20:31:15.047Z,101421.23
2018-06-28T20:36:08.110Z,101427.15
2018-06-28T20:41:01.064Z,101430.93
2018-06-28T20:45:54.161Z,101434.14
2018-06-28T20:50:47.573Z,101430.47
2018-06-28T20:55:40.553Z,101435.83
2018-06-28T21:00:33.758Z,101438.78
2018-06-28T21:05:26.926Z,101434.84
2018-06-28T21:10:19.954Z,101439.63
2018-06-28T21:15:13.017Z,101436.44
2018-06-28T21:20:06.059Z,101442.34
2018-06-28T21:24:59.072Z,101434.30
2018-06-28T21:29:52.116Z,101437.67
2018-06-28T21:34:45.201Z,101442.72
2018-06-28T21:39:38.123Z,101439.77
2018-06-28T21:44:31.172Z,101438.49
2018-06-28T21:49:24.063Z,101445.16
2018-06-28T21:54:17.108Z,101447.77
2018-06-28T21:59:10.210Z,101457.52
2018-06-28T22:04:03.395Z,101448.51
2018-06-28T22:08:56.390Z,101441.23
2018-06-28T22:13:49.437Z,101445.20
2018-06-28T22:18:42.406Z,101445.02
2018-06-28T22:23:35.414Z,101446.00
2018-06-28T22:28:29.240Z,101448.05
2018-06-28T22:33:22.155Z,101442.40
2018-06-28T22:38:15.271Z,101437.80
2018-06-28T22:43:08.357Z,101431.28
2018-06-28T22:48:01.275Z,101433.80
2018-06-28T22:52:54.292Z,101430.61
2018-06-28T22:57:47.308Z,101427.14
2018-06-28T23:02:40.314Z,101421.19
2018-06-28T23:07:33.315Z,101427.55
2018-06-28T23:12:26.325Z,101426.52
2018-06-28T23:17:19.326Z,101427.98
2018-06-28T23:22:46.122Z,101431.86
2018-06-28T23:27:39.132Z,101426.20
2018-06-28T23:32:32.222Z,101426.28
2018-06-28T23:37:25.228Z,101417.81
2018-06-28T23:42:18.328Z,101411.00
2018-06-28T23:47:11.365Z,101403.66
2018-06-28T23:52:04.565Z,101405.63
2018-06-28T23:56:57.637Z,101411.97
